sensor_id;sensor_type;location;lat;lon;timestamp;pressure;altitude;pressure_sealevel;temperature;humidity
41632;BME280;37452;51.938;4.624;2023-07-31T00:01:42;75525.16;;;-142.75;100.00
41632;BME280;37452;51.938;4.624;2023-07-31T00:04:07;75517.28;;;-142.75;100.00
41632;BME280;37452;51.938;4.624;2023-07-31T00:06:32;75531.06;;;-142.75;100.00
41632;BME280;37452;51.938;4.624;2023-07-31T00:08:58;75531.06;;;-142.75;100.00
41632;BME280;37452;51.938;4.624;2023-07-31T00:11:23;75535.00;;;-142.75;100.00
41632;BME280;37452;51.938;4.624;2023-07-31T00:13:48;75535.00;;;-142.75;100.00
41632;BME280;37452;51.938;4.624;2023-07-31T00:16:14;75535.00;;;-142.75;100.00
41632;BME280;37452;51.938;4.624;2023-07-31T00:18:39;75535.00;;;-142.75;100.00
41632;BME280;37452;51.938;4.624;2023-07-31T00:21:04;75538.94;;;-142.75;100.00
41632;BME280;37452;51.938;4.624;2023-07-31T00:23:29;75536.97;;;-142.75;100.00
41632;BME280;37452;51.938;4.624;2023-07-31T00:25:55;75531.06;;;-142.75;100.00
41632;BME280;37452;51.938;4.624;2023-07-31T00:28:20;75531.06;;;-142.75;100.00
41632;BME280;37452;51.938;4.624;2023-07-31T00:30:45;75529.09;;;-142.75;100.00
41632;BME280;37452;51.938;4.624;2023-07-31T00:33:11;75531.06;;;-142.75;100.00
41632;BME280;37452;51.938;4.624;2023-07-31T00:35:37;75536.97;;;-142.75;100.00
41632;BME280;37452;51.938;4.624;2023-07-31T00:38:02;75531.06;;;-142.75;100.00
41632;BME280;37452;51.938;4.624;2023-07-31T00:40:27;75538.94;;;-142.75;100.00
41632;BME280;37452;51.938;4.624;2023-07-31T00:42:53;75544.84;;;-142.75;100.00
41632;BME280;37452;51.938;4.624;2023-07-31T00:45:18;75548.78;;;-142.75;100.00
41632;BME280;37452;51.938;4.624;2023-07-31T00:47:43;75529.09;;;-142.75;100.00
41632;BME280;37452;51.938;4.624;2023-07-31T00:50:09;75523.19;;;-142.75;100.00
41632;BME280;37452;51.938;4.624;2023-07-31T00:52:35;75519.25;;;-142.75;100.00
41632;BME280;37452;51.938;4.624;2023-07-31T00:55:01;75521.22;;;-142.75;100.00
41632;BME280;37452;51.938;4.624;2023-07-31T00:57:26;75529.09;;;-142.75;100.00
41632;BME280;37452;51.938;4.624;2023-07-31T00:59:51;75536.97;;;-142.75;100.00
41632;BME280;37452;51.938;4.624;2023-07-31T01:02:17;75535.00;;;-142.75;100.00
41632;BME280;37452;51.938;4.624;2023-07-31T01:04:43;75538.94;;;-142.75;100.00
41632;BME280;37452;51.938;4.624;2023-07-31T01:10:15;75546.81;;;-142.75;100.00
41632;BME280;37452;51.938;4.624;2023-07-31T01:12:45;75544.84;;;-142.75;100.00
41632;BME280;37452;51.938;4.624;2023-07-31T01:15:10;75550.75;;;-142.75;100.00
41632;BME280;37452;51.938;4.624;2023-07-31T01:17:37;75550.75;;;-142.75;100.00
41632;BME280;37452;51.938;4.624;2023-07-31T01:20:05;75558.63;;;-142.75;100.00
41632;BME280;37452;51.938;4.624;2023-07-31T01:23:03;75546.81;;;-142.75;100.00
41632;BME280;37452;51.938;4.624;2023-07-31T01:28:25;75546.81;;;-142.75;100.00
41632;BME280;37452;51.938;4.624;2023-07-31T01:30:54;75529.09;;;-142.75;100.00
41632;BME280;37452;51.938;4.624;2023-07-31T01:33:22;75538.94;;;-142.75;100.00
41632;BME280;37452;51.938;4.624;2023-07-31T01:35:48;75513.38;;;-142.75;100.00
41632;BME280;37452;51.938;4.624;2023-07-31T01:38:14;75529.09;;;-142.75;100.00
41632;BME280;37452;51.938;4.624;2023-07-31T01:40:41;75515.31;;;-142.75;100.00
41632;BME280;37452;51.938;4.624;2023-07-31T01:43:07;75519.25;;;-142.75;100.00
41632;BME280;37452;51.938;4.624;2023-07-31T01:45:32;75517.28;;;-142.75;100.00
41632;BME280;37452;51.938;4.624;2023-07-31T01:47:58;75511.41;;;-142.75;100.00
41632;BME280;37452;51.938;4.624;2023-07-31T01:50:23;75523.19;;;-142.75;100.00
41632;BME280;37452;51.938;4.624;2023-07-31T01:52:48;75519.25;;;-142.75;100.00
41632;BME280;37452;51.938;4.624;2023-07-31T01:55:14;75527.13;;;-142.75;100.00
41632;BME280;37452;51.938;4.624;2023-07-31T01:57:39;75515.31;;;-142.75;100.00
41632;BME280;37452;51.938;4.624;2023-07-31T02:00:05;75509.44;;;-142.75;100.00
41632;BME280;37452;51.938;4.624;2023-07-31T02:02:31;75501.56;;;-142.75;100.00
41632;BME280;37452;51.938;4.624;2023-07-31T02:04:56;75509.44;;;-142.75;100.00
41632;BME280;37452;51.938;4.624;2023-07-31T02:07:22;75509.44;;;-142.75;100.00
41632;BME280;37452;51.938;4.624;2023-07-31T02:09:47;75499.59;;;-142.75;100.00
41632;BME280;37452;51.938;4.624;2023-07-31T02:12:13;75495.66;;;-142.75;100.00
41632;BME280;37452;51.938;4.624;2023-07-31T02:14:40;75503.53;;;-142.75;100.00
41632;BME280;37452;51.938;4.624;2023-07-31T02:17:05;75509.44;;;-142.75;100.00
41632;BME280;37452;51.938;4.624;2023-07-31T02:19:31;75497.63;;;-142.75;100.00
41632;BME280;37452;51.938;4.624;2023-07-31T02:21:56;75497.63;;;-142.75;100.00
41632;BME280;37452;51.938;4.624;2023-07-31T02:24:21;75493.69;;;-142.75;100.00
41632;BME280;37452;51.938;4.624;2023-07-31T02:26:46;75519.25;;;-142.75;100.00
41632;BME280;37452;51.938;4.624;2023-07-31T02:29:12;75509.44;;;-142.75;100.00
41632;BME280;37452;51.938;4.624;2023-07-31T02:31:37;75519.25;;;-142.75;100.00
41632;BME280;37452;51.938;4.624;2023-07-31T02:34:02;75525.16;;;-142.75;100.00
41632;BME280;37452;51.938;4.624;2023-07-31T02:36:28;75527.13;;;-142.75;100.00
41632;BME280;37452;51.938;4.624;2023-07-31T02:38:53;75535.00;;;-142.75;100.00
41632;BME280;37452;51.938;4.624;2023-07-31T02:41:18;75535.00;;;-142.75;100.00
41632;BME280;37452;51.938;4.624;2023-07-31T02:43:44;75556.66;;;-142.75;100.00
41632;BME280;37452;51.938;4.624;2023-07-31T02:46:09;75558.63;;;-142.75;100.00
41632;BME280;37452;51.938;4.624;2023-07-31T02:48:34;75544.84;;;-142.75;100.00
41632;BME280;37452;51.938;4.624;2023-07-31T02:51:00;75531.06;;;-142.75;100.00
41632;BME280;37452;51.938;4.624;2023-07-31T02:53:25;75538.94;;;-142.75;100.00
41632;BME280;37452;51.938;4.624;2023-07-31T02:55:50;75535.00;;;-142.75;100.00
41632;BME280;37452;51.938;4.624;2023-07-31T02:58:16;75546.81;;;-142.75;100.00
41632;BME280;37452;51.938;4.624;2023-07-31T03:00:44;75525.16;;;-142.75;100.00
41632;BME280;37452;51.938;4.624;2023-07-31T03:03:10;75542.88;;;-142.75;100.00
41632;BME280;37452;51.938;4.624;2023-07-31T03:05:35;75542.88;;;-142.75;100.00
41632;BME280;37452;51.938;4.624;2023-07-31T03:08:01;75554.69;;;-142.75;100.00
41632;BME280;37452;51.938;4.624;2023-07-31T03:10:26;75538.94;;;-142.75;100.00
41632;BME280;37452;51.938;4.624;2023-07-31T03:12:52;75523.19;;;-142.75;100.00
41632;BME280;37452;51.938;4.624;2023-07-31T03:15:17;75513.38;;;-142.75;100.00
41632;BME280;37452;51.938;4.624;2023-07-31T03:17:42;75531.06;;;-142.75;100.00
41632;BME280;37452;51.938;4.624;2023-07-31T03:20:08;75515.31;;;-142.75;100.00
41632;BME280;37452;51.938;4.624;2023-07-31T03:22:34;75519.25;;;-142.75;100.00
41632;BME280;37452;51.938;4.624;2023-07-31T03:25:01;75517.28;;;-142.75;100.00
41632;BME280;37452;51.938;4.624;2023-07-31T03:27:26;75525.16;;;-142.75;100.00
41632;BME280;37452;51.938;4.624;2023-07-31T03:29:51;75540.91;;;-142.75;100.00
41632;BME280;37452;51.938;4.624;2023-07-31T03:32:17;75525.16;;;-142.75;100.00
41632;BME280;37452;51.938;4.624;2023-07-31T03:34:42;75535.00;;;-142.75;100.00
41632;BME280;37452;51.938;4.624;2023-07-31T03:37:07;75538.94;;;-142.75;100.00
41632;BME280;37452;51.938;4.624;2023-07-31T03:39:35;75540.91;;;-142.75;100.00
41632;BME280;37452;51.938;4.624;2023-07-31T03:42:00;75527.13;;;-142.75;100.00
41632;BME280;37452;51.938;4.624;2023-07-31T03:44:25;75548.78;;;-142.75;100.00
41632;BME280;37452;51.938;4.624;2023-07-31T03:46:51;75531.06;;;-142.75;100.00
41632;BME280;37452;51.938;4.624;2023-07-31T03:49:16;75542.88;;;-142.75;100.00
41632;BME280;37452;51.938;4.624;2023-07-31T03:51:42;75529.09;;;-142.75;100.00
41632;BME280;37452;51.938;4.624;2023-07-31T03:54:07;75523.19;;;-142.75;100.00
41632;BME280;37452;51.938;4.624;2023-07-31T03:56:33;75525.16;;;-142.75;100.00
41632;BME280;37452;51.938;4.624;2023-07-31T03:58:58;75515.31;;;-142.75;100.00
41632;BME280;37452;51.938;4.624;2023-07-31T04:01:24;75531.06;;;-142.75;100.00
41632;BME280;37452;51.938;4.624;2023-07-31T04:03:49;75519.25;;;-142.75;100.00
41632;BME280;37452;51.938;4.624;2023-07-31T04:06:14;75515.31;;;-142.75;100.00
41632;BME280;37452;51.938;4.624;2023-07-31T04:08:43;75501.56;;;-142.75;100.00
41632;BME280;37452;51.938;4.624;2023-07-31T04:11:08;75503.53;;;-142.75;100.00
41632;BME280;37452;51.938;4.624;2023-07-31T04:13:34;75509.44;;;-142.75;100.00
41632;BME280;37452;51.938;4.624;2023-07-31T04:15:59;75501.56;;;-142.75;100.00
41632;BME280;37452;51.938;4.624;2023-07-31T04:18:25;75489.75;;;-142.75;100.00
41632;BME280;37452;51.938;4.624;2023-07-31T04:20:51;75495.66;;;-142.75;100.00
41632;BME280;37452;51.938;4.624;2023-07-31T04:23:16;75487.78;;;-142.75;100.00
41632;BME280;37452;51.938;4.624;2023-07-31T04:25:41;75479.91;;;-142.75;100.00
41632;BME280;37452;51.938;4.624;2023-07-31T04:28:07;75489.75;;;-142.75;100.00
41632;BME280;37452;51.938;4.624;2023-07-31T04:30:33;75495.66;;;-142.75;100.00
41632;BME280;37452;51.938;4.624;2023-07-31T04:32:58;75499.59;;;-142.75;100.00
41632;BME280;37452;51.938;4.624;2023-07-31T04:35:24;75483.84;;;-142.75;100.00
41632;BME280;37452;51.938;4.624;2023-07-31T04:37:49;75493.69;;;-142.75;100.00
41632;BME280;37452;51.938;4.624;2023-07-31T04:40:15;75485.81;;;-142.75;100.00
41632;BME280;37452;51.938;4.624;2023-07-31T04:42:41;75493.69;;;-142.75;100.00
41632;BME280;37452;51.938;4.624;2023-07-31T04:45:08;75499.59;;;-142.75;100.00
41632;BME280;37452;51.938;4.624;2023-07-31T04:47:33;75475.97;;;-142.75;100.00
41632;BME280;37452;51.938;4.624;2023-07-31T04:49:58;75491.72;;;-142.75;100.00
41632;BME280;37452;51.938;4.624;2023-07-31T04:52:24;75483.84;;;-142.75;100.00
41632;BME280;37452;51.938;4.624;2023-07-31T04:54:49;75477.94;;;-142.75;100.00
41632;BME280;37452;51.938;4.624;2023-07-31T04:57:14;75464.16;;;-142.75;100.00
41632;BME280;37452;51.938;4.624;2023-07-31T04:59:40;75491.72;;;-142.75;100.00
41632;BME280;37452;51.938;4.624;2023-07-31T05:02:06;75477.94;;;-142.75;100.00
41632;BME280;37452;51.938;4.624;2023-07-31T05:04:32;75475.97;;;-142.75;100.00
41632;BME280;37452;51.938;4.624;2023-07-31T05:06:57;75481.88;;;-142.75;100.00
41632;BME280;37452;51.938;4.624;2023-07-31T05:09:22;75470.06;;;-142.75;100.00
41632;BME280;37452;51.938;4.624;2023-07-31T05:11:48;75466.13;;;-142.75;100.00
41632;BME280;37452;51.938;4.624;2023-07-31T05:14:13;75460.22;;;-142.75;100.00
41632;BME280;37452;51.938;4.624;2023-07-31T05:16:39;75464.16;;;-142.75;100.00
41632;BME280;37452;51.938;4.624;2023-07-31T05:19:04;75454.31;;;-142.75;100.00
41632;BME280;37452;51.938;4.624;2023-07-31T05:21:29;75456.28;;;-142.75;100.00
41632;BME280;37452;51.938;4.624;2023-07-31T05:23:55;75458.25;;;-142.75;100.00
41632;BME280;37452;51.938;4.624;2023-07-31T05:26:20;75448.41;;;-142.75;100.00
41632;BME280;37452;51.938;4.624;2023-07-31T05:28:45;75444.47;;;-142.75;100.00
41632;BME280;37452;51.938;4.624;2023-07-31T05:31:11;75452.34;;;-142.75;100.00
41632;BME280;37452;51.938;4.624;2023-07-31T05:33:36;75436.59;;;-142.75;100.00
41632;BME280;37452;51.938;4.624;2023-07-31T05:36:01;75418.91;;;-142.75;100.00
41632;BME280;37452;51.938;4.624;2023-07-31T05:38:27;75432.69;;;-142.75;100.00
41632;BME280;37452;51.938;4.624;2023-07-31T05:40:52;75426.78;;;-142.75;100.00
41632;BME280;37452;51.938;4.624;2023-07-31T05:43:17;75428.75;;;-142.75;100.00
41632;BME280;37452;51.938;4.624;2023-07-31T05:45:44;75407.09;;;-142.75;100.00
41632;BME280;37452;51.938;4.624;2023-07-31T05:48:09;75428.75;;;-142.75;100.00
41632;BME280;37452;51.938;4.624;2023-07-31T05:50:35;75428.75;;;-142.75;100.00
41632;BME280;37452;51.938;4.624;2023-07-31T05:53:00;75428.75;;;-142.75;100.00
41632;BME280;37452;51.938;4.624;2023-07-31T05:55:25;75409.06;;;-142.75;100.00
41632;BME280;37452;51.938;4.624;2023-07-31T05:57:52;75385.44;;;-142.75;100.00
41632;BME280;37452;51.938;4.624;2023-07-31T06:00:18;75389.38;;;-142.75;100.00
41632;BME280;37452;51.938;4.624;2023-07-31T06:02:43;75399.22;;;-142.75;100.00
41632;BME280;37452;51.938;4.624;2023-07-31T06:05:08;75385.44;;;-142.75;100.00
41632;BME280;37452;51.938;4.624;2023-07-31T06:07:34;75373.63;;;-142.75;100.00
41632;BME280;37452;51.938;4.624;2023-07-31T06:09:59;75381.50;;;-142.75;100.00
41632;BME280;37452;51.938;4.624;2023-07-31T06:12:31;75381.50;;;-142.75;100.00
41632;BME280;37452;51.938;4.624;2023-07-31T06:14:57;75365.75;;;-142.75;100.00
41632;BME280;37452;51.938;4.624;2023-07-31T06:17:22;75361.84;;;-142.75;100.00
41632;BME280;37452;51.938;4.624;2023-07-31T06:19:48;75359.88;;;-142.75;100.00
41632;BME280;37452;51.938;4.624;2023-07-31T06:22:14;75355.94;;;-142.75;100.00
41632;BME280;37452;51.938;4.624;2023-07-31T06:24:39;75346.09;;;-142.75;100.00
41632;BME280;37452;51.938;4.624;2023-07-31T06:27:05;75350.03;;;-142.75;100.00
41632;BME280;37452;51.938;4.624;2023-07-31T06:29:31;75361.84;;;-142.75;100.00
41632;BME280;37452;51.938;4.624;2023-07-31T06:31:56;75338.22;;;-142.75;100.00
41632;BME280;37452;51.938;4.624;2023-07-31T06:34:21;75350.03;;;-142.75;100.00
41632;BME280;37452;51.938;4.624;2023-07-31T06:36:47;75344.13;;;-142.75;100.00
41632;BME280;37452;51.938;4.624;2023-07-31T06:39:12;75332.31;;;-142.75;100.00
41632;BME280;37452;51.938;4.624;2023-07-31T06:41:38;75338.22;;;-142.75;100.00
41632;BME280;37452;51.938;4.624;2023-07-31T06:44:03;75322.47;;;-142.75;100.00
41632;BME280;37452;51.938;4.624;2023-07-31T06:46:29;75306.72;;;-142.75;100.00
41632;BME280;37452;51.938;4.624;2023-07-31T06:48:54;75320.50;;;-142.75;100.00
41632;BME280;37452;51.938;4.624;2023-07-31T06:51:20;75294.94;;;-142.75;100.00
41632;BME280;37452;51.938;4.624;2023-07-31T06:53:45;75292.97;;;-142.75;100.00
41632;BME280;37452;51.938;4.624;2023-07-31T06:56:11;75289.03;;;-142.75;100.00
41632;BME280;37452;51.938;4.624;2023-07-31T06:58:36;75302.78;;;-142.75;100.00
41632;BME280;37452;51.938;4.624;2023-07-31T07:01:02;75289.03;;;-142.75;100.00
41632;BME280;37452;51.938;4.624;2023-07-31T07:03:27;75300.81;;;-142.75;100.00
41632;BME280;37452;51.938;4.624;2023-07-31T07:05:53;75285.09;;;-142.75;100.00
41632;BME280;37452;51.938;4.624;2023-07-31T07:08:18;75287.06;;;-142.75;100.00
41632;BME280;37452;51.938;4.624;2023-07-31T07:10:43;75294.94;;;-142.75;100.00
41632;BME280;37452;51.938;4.624;2023-07-31T07:13:09;75298.84;;;-142.75;100.00
41632;BME280;37452;51.938;4.624;2023-07-31T07:15:34;75291.00;;;-142.75;100.00
41632;BME280;37452;51.938;4.624;2023-07-31T07:18:00;75275.25;;;-142.75;100.00
41632;BME280;37452;51.938;4.624;2023-07-31T07:20:25;75283.13;;;-142.75;100.00
41632;BME280;37452;51.938;4.624;2023-07-31T07:22:50;75279.19;;;-142.75;100.00
41632;BME280;37452;51.938;4.624;2023-07-31T07:25:16;75275.25;;;-142.75;100.00
41632;BME280;37452;51.938;4.624;2023-07-31T07:27:41;75285.09;;;-142.75;100.00
41632;BME280;37452;51.938;4.624;2023-07-31T07:30:07;75279.19;;;-142.75;100.00
41632;BME280;37452;51.938;4.624;2023-07-31T07:32:33;75257.53;;;-142.75;100.00
41632;BME280;37452;51.938;4.624;2023-07-31T07:34:58;75269.34;;;-142.75;100.00
41632;BME280;37452;51.938;4.624;2023-07-31T07:37:23;75279.19;;;-142.75;100.00
41632;BME280;37452;51.938;4.624;2023-07-31T07:39:49;75267.38;;;-142.75;100.00
41632;BME280;37452;51.938;4.624;2023-07-31T07:42:14;75257.53;;;-142.75;100.00
41632;BME280;37452;51.938;4.624;2023-07-31T07:44:39;75251.63;;;-142.75;100.00
41632;BME280;37452;51.938;4.624;2023-07-31T07:47:05;75235.88;;;-142.75;100.00
41632;BME280;37452;51.938;4.624;2023-07-31T07:49:34;75224.09;;;-142.75;100.00
41632;BME280;37452;51.938;4.624;2023-07-31T07:52:00;75226.06;;;-142.75;100.00
41632;BME280;37452;51.938;4.624;2023-07-31T07:54:26;75237.84;;;-142.75;100.00
41632;BME280;37452;51.938;4.624;2023-07-31T07:56:51;75224.09;;;-142.75;100.00
41632;BME280;37452;51.938;4.624;2023-07-31T07:59:16;75218.19;;;-142.75;100.00
41632;BME280;37452;51.938;4.624;2023-07-31T08:01:42;75212.28;;;-142.75;100.00
41632;BME280;37452;51.938;4.624;2023-07-31T08:04:07;75186.69;;;-142.75;100.00
41632;BME280;37452;51.938;4.624;2023-07-31T08:06:33;75190.63;;;-142.75;100.00
41632;BME280;37452;51.938;4.624;2023-07-31T08:08:59;75186.69;;;-142.75;100.00
41632;BME280;37452;51.938;4.624;2023-07-31T08:11:24;75172.91;;;-142.75;100.00
41632;BME280;37452;51.938;4.624;2023-07-31T08:13:50;75172.91;;;-142.75;100.00
41632;BME280;37452;51.938;4.624;2023-07-31T08:16:15;75176.84;;;-142.75;100.00
41632;BME280;37452;51.938;4.624;2023-07-31T08:18:40;75172.91;;;-142.75;100.00
41632;BME280;37452;51.938;4.624;2023-07-31T08:21:07;75180.78;;;-142.75;100.00
41632;BME280;37452;51.938;4.624;2023-07-31T08:23:33;75188.66;;;-142.75;100.00
41632;BME280;37452;51.938;4.624;2023-07-31T08:25:58;75186.69;;;-142.75;100.00
41632;BME280;37452;51.938;4.624;2023-07-31T08:28:23;75188.66;;;-142.75;100.00
41632;BME280;37452;51.938;4.624;2023-07-31T08:30:49;75182.75;;;-142.75;100.00
41632;BME280;37452;51.938;4.624;2023-07-31T08:33:15;75172.91;;;-142.75;100.00
41632;BME280;37452;51.938;4.624;2023-07-31T08:35:41;75157.19;;;-142.75;100.00
41632;BME280;37452;51.938;4.624;2023-07-31T08:38:06;75147.34;;;-142.75;100.00
41632;BME280;37452;51.938;4.624;2023-07-31T08:40:31;75129.63;;;-142.75;100.00
41632;BME280;37452;51.938;4.624;2023-07-31T08:42:57;75129.63;;;-142.75;100.00
41632;BME280;37452;51.938;4.624;2023-07-31T08:45:27;75129.63;;;-142.75;100.00
41632;BME280;37452;51.938;4.624;2023-07-31T08:47:52;75137.50;;;-142.75;100.00
41632;BME280;37452;51.938;4.624;2023-07-31T08:50:20;75121.75;;;-142.75;100.00
41632;BME280;37452;51.938;4.624;2023-07-31T08:52:47;75129.63;;;-142.75;100.00
41632;BME280;37452;51.938;4.624;2023-07-31T08:55:13;75107.97;;;-142.75;100.00
41632;BME280;37452;51.938;4.624;2023-07-31T08:57:39;75117.81;;;-142.75;100.00
41632;BME280;37452;51.938;4.624;2023-07-31T09:00:06;75117.81;;;-142.75;100.00
41632;BME280;37452;51.938;4.624;2023-07-31T09:02:39;75102.06;;;-142.75;100.00
41632;BME280;37452;51.938;4.624;2023-07-31T09:05:07;75113.88;;;-142.75;100.00
41632;BME280;37452;51.938;4.624;2023-07-31T09:07:34;75125.69;;;-142.75;100.00
41632;BME280;37452;51.938;4.624;2023-07-31T09:10:00;75137.50;;;-142.75;100.00
41632;BME280;37452;51.938;4.624;2023-07-31T09:12:25;75147.34;;;-142.75;100.00
41632;BME280;37452;51.938;4.624;2023-07-31T09:14:51;75137.50;;;-142.75;100.00
41632;BME280;37452;51.938;4.624;2023-07-31T09:17:28;75119.78;;;-142.75;100.00
41632;BME280;37452;51.938;4.624;2023-07-31T09:19:55;75113.88;;;-142.75;100.00
41632;BME280;37452;51.938;4.624;2023-07-31T09:22:32;75104.03;;;-142.75;100.00
41632;BME280;37452;51.938;4.624;2023-07-31T09:25:13;75082.41;;;-142.75;100.00
41632;BME280;37452;51.938;4.624;2023-07-31T09:27:49;75090.28;;;-142.75;100.00
41632;BME280;37452;51.938;4.624;2023-07-31T09:30:15;75066.66;;;-142.75;100.00
41632;BME280;37452;51.938;4.624;2023-07-31T09:32:43;75102.06;;;-142.75;100.00
41632;BME280;37452;51.938;4.624;2023-07-31T09:35:28;75070.59;;;-142.75;100.00
41632;BME280;37452;51.938;4.624;2023-07-31T09:37:55;75062.72;;;-142.75;100.00
41632;BME280;37452;51.938;4.624;2023-07-31T09:40:29;75058.78;;;-142.75;100.00
41632;BME280;37452;51.938;4.624;2023-07-31T09:43:06;75058.78;;;-142.75;100.00
41632;BME280;37452;51.938;4.624;2023-07-31T09:45:34;75050.91;;;-142.75;100.00
41632;BME280;37452;51.938;4.624;2023-07-31T09:48:01;75078.47;;;-142.75;100.00
41632;BME280;37452;51.938;4.624;2023-07-31T09:50:27;75064.69;;;-142.75;100.00
41632;BME280;37452;51.938;4.624;2023-07-31T09:52:53;75052.88;;;-142.75;100.00
41632;BME280;37452;51.938;4.624;2023-07-31T09:55:19;75039.13;;;-142.75;100.00
41632;BME280;37452;51.938;4.624;2023-07-31T09:57:47;75050.91;;;-142.75;100.00
41632;BME280;37452;51.938;4.624;2023-07-31T10:00:14;75058.78;;;-142.75;100.00
41632;BME280;37452;51.938;4.624;2023-07-31T10:02:41;75072.56;;;-142.75;100.00
41632;BME280;37452;51.938;4.624;2023-07-31T10:05:07;75058.78;;;-142.75;100.00
41632;BME280;37452;51.938;4.624;2023-07-31T10:07:39;75045.00;;;-142.75;100.00
41632;BME280;37452;51.938;4.624;2023-07-31T10:10:07;75046.97;;;-142.75;100.00
41632;BME280;37452;51.938;4.624;2023-07-31T10:12:33;75068.63;;;-142.75;100.00
41632;BME280;37452;51.938;4.624;2023-07-31T10:15:00;75050.91;;;-142.75;100.00
41632;BME280;37452;51.938;4.624;2023-07-31T10:17:26;75058.78;;;-142.75;100.00
41632;BME280;37452;51.938;4.624;2023-07-31T10:19:52;75062.72;;;-142.75;100.00
41632;BME280;37452;51.938;4.624;2023-07-31T10:22:19;75058.78;;;-142.75;100.00
41632;BME280;37452;51.938;4.624;2023-07-31T10:24:45;75068.63;;;-142.75;100.00
41632;BME280;37452;51.938;4.624;2023-07-31T10:27:11;75080.44;;;-142.75;100.00
41632;BME280;37452;51.938;4.624;2023-07-31T10:29:38;75064.69;;;-142.75;100.00
41632;BME280;37452;51.938;4.624;2023-07-31T10:32:06;75066.66;;;-142.75;100.00
41632;BME280;37452;51.938;4.624;2023-07-31T10:34:35;75072.56;;;-142.75;100.00
41632;BME280;37452;51.938;4.624;2023-07-31T10:40:03;75058.78;;;-142.75;100.00
41632;BME280;37452;51.938;4.624;2023-07-31T10:42:38;75058.78;;;-142.75;100.00
41632;BME280;37452;51.938;4.624;2023-07-31T10:45:07;75078.47;;;-142.75;100.00
41632;BME280;37452;51.938;4.624;2023-07-31T10:47:42;75070.59;;;-142.75;100.00
41632;BME280;37452;51.938;4.624;2023-07-31T10:50:18;75058.78;;;-142.75;100.00
41632;BME280;37452;51.938;4.624;2023-07-31T10:52:51;75048.94;;;-142.75;100.00
41632;BME280;37452;51.938;4.624;2023-07-31T10:55:42;75046.97;;;-142.75;100.00
41632;BME280;37452;51.938;4.624;2023-07-31T10:58:13;75058.78;;;-142.75;100.00
41632;BME280;37452;51.938;4.624;2023-07-31T11:00:41;75045.00;;;-142.75;100.00
41632;BME280;37452;51.938;4.624;2023-07-31T11:10:45;75027.31;;;-142.75;100.00
41632;BME280;37452;51.938;4.624;2023-07-31T11:13:11;75025.34;;;-142.75;100.00
41632;BME280;37452;51.938;4.624;2023-07-31T11:15:36;75003.69;;;-142.75;100.00
41632;BME280;37452;51.938;4.624;2023-07-31T11:18:03;74999.75;;;-142.75;100.00
41632;BME280;37452;51.938;4.624;2023-07-31T11:20:32;75035.19;;;-142.75;100.00
41632;BME280;37452;51.938;4.624;2023-07-31T11:23:02;74993.84;;;-142.75;100.00
41632;BME280;37452;51.938;4.624;2023-07-31T11:25:31;74980.06;;;-142.75;100.00
41632;BME280;37452;51.938;4.624;2023-07-31T11:28:03;74980.06;;;-142.75;100.00
41632;BME280;37452;51.938;4.624;2023-07-31T11:30:28;75021.41;;;-142.75;100.00
41632;BME280;37452;51.938;4.624;2023-07-31T11:32:55;74995.81;;;-142.75;100.00
41632;BME280;37452;51.938;4.624;2023-07-31T11:35:21;74987.94;;;-142.75;100.00
41632;BME280;37452;51.938;4.624;2023-07-31T11:37:47;75019.44;;;-142.75;100.00
41632;BME280;37452;51.938;4.624;2023-07-31T11:40:14;74999.75;;;-142.75;100.00
41632;BME280;37452;51.938;4.624;2023-07-31T11:42:39;75009.59;;;-142.75;100.00
41632;BME280;37452;51.938;4.624;2023-07-31T11:45:06;75003.69;;;-142.75;100.00
41632;BME280;37452;51.938;4.624;2023-07-31T11:47:33;75003.69;;;-142.75;100.00
41632;BME280;37452;51.938;4.624;2023-07-31T11:50:06;75005.66;;;-142.75;100.00
41632;BME280;37452;51.938;4.624;2023-07-31T11:52:41;74987.94;;;-142.75;100.00
41632;BME280;37452;51.938;4.624;2023-07-31T11:55:09;75011.56;;;-142.75;100.00
41632;BME280;37452;51.938;4.624;2023-07-31T11:57:39;75011.56;;;-142.75;100.00
41632;BME280;37452;51.938;4.624;2023-07-31T12:00:07;75011.56;;;-142.75;100.00
41632;BME280;37452;51.938;4.624;2023-07-31T12:02:34;74995.81;;;-142.75;100.00
41632;BME280;37452;51.938;4.624;2023-07-31T12:05:01;74995.81;;;-142.75;100.00
41632;BME280;37452;51.938;4.624;2023-07-31T12:07:26;74980.06;;;-142.75;100.00
41632;BME280;37452;51.938;4.624;2023-07-31T12:09:54;74976.16;;;-142.75;100.00
41632;BME280;37452;51.938;4.624;2023-07-31T12:12:21;74974.19;;;-142.75;100.00
41632;BME280;37452;51.938;4.624;2023-07-31T12:14:47;74966.31;;;-142.75;100.00
41632;BME280;37452;51.938;4.624;2023-07-31T12:17:13;74970.25;;;-142.75;100.00
41632;BME280;37452;51.938;4.624;2023-07-31T12:19:39;74982.03;;;-142.75;100.00
41632;BME280;37452;51.938;4.624;2023-07-31T12:22:15;74958.44;;;-142.75;100.00
41632;BME280;37452;51.938;4.624;2023-07-31T12:24:43;74940.72;;;-142.75;100.00
41632;BME280;37452;51.938;4.624;2023-07-31T12:27:13;74938.75;;;-142.75;100.00
41632;BME280;37452;51.938;4.624;2023-07-31T12:29:41;74936.78;;;-142.75;100.00
41632;BME280;37452;51.938;4.624;2023-07-31T12:32:23;74909.25;;;-142.75;100.00
41632;BME280;37452;51.938;4.624;2023-07-31T12:34:50;74944.66;;;-142.75;100.00
41632;BME280;37452;51.938;4.624;2023-07-31T12:37:15;74923.03;;;-142.75;100.00
41632;BME280;37452;51.938;4.624;2023-07-31T12:39:41;74919.09;;;-142.75;100.00
41632;BME280;37452;51.938;4.624;2023-07-31T12:42:06;74923.03;;;-142.75;100.00
41632;BME280;37452;51.938;4.624;2023-07-31T12:44:32;74915.16;;;-142.75;100.00